Time;durP1;ratioP1;P1;durP2;ratioP2;P2;SDS_P1;SDS_P2;PMS_P1;PMS_P2;Temp;Humidity;BMP_temperature;BMP_pressure;BME280_temperature;BME280_humidity;BME280_pressure;Samples;Min_cycle;Max_cycle;Signal;HPM_P1;HPM_P2
2021/07/22 00:01:18;;;;;;;14.83;9.07;;;;;;;;;;5082374;28;20229;-61
2021/07/22 00:03:47;;;;;;;12.53;8.47;;;;;;;;;;5092900;28;20213;-62
2021/07/22 00:06:32;;;;;;;14.37;8.47;;;;;;;;;;5088408;28;20253;-62
2021/07/22 00:09:00;;;;;;;10.60;8.13;;;;;;;;;;5099317;28;20198;-64
2021/07/22 00:11:28;;;;;;;11.47;8.27;;;;;;;;;;5094219;27;20214;-63
2021/07/22 00:13:56;;;;;;;13.87;8.63;;;;;;;;;;5087469;28;20288;-63
2021/07/22 00:16:24;;;;;;;15.17;8.20;;;;;;;;;;5087977;28;20284;-60
2021/07/22 00:18:52;;;;;;;12.03;8.03;;;;;;;;;;5088191;28;20725;-62
2021/07/22 00:21:20;;;;;;;11.67;7.50;;;;;;;;;;5085111;28;20227;-62
2021/07/22 00:23:49;;;;;;;12.87;8.07;;;;;;;;;;5090201;28;20201;-62
2021/07/22 00:26:17;;;;;;;10.07;7.90;;;;;;;;;;5085332;28;20198;-62
2021/07/22 00:28:45;;;;;;;11.23;8.33;;;;;;;;;;5085221;28;20198;-63
2021/07/22 00:31:13;;;;;;;11.47;8.57;;;;;;;;;;5083739;28;20199;-62
2021/07/22 00:33:41;;;;;;;12.50;8.70;;;;;;;;;;5088522;28;20220;-62
2021/07/22 00:36:09;;;;;;;11.43;8.30;;;;;;;;;;5086979;28;20217;-62
2021/07/22 00:38:37;;;;;;;12.00;8.23;;;;;;;;;;5089024;28;20232;-62
2021/07/22 00:41:10;;;;;;;11.37;7.93;;;;;;;;;;5085080;28;20561;-62
2021/07/22 00:43:39;;;;;;;14.03;8.43;;;;;;;;;;5086860;28;20194;-63
2021/07/22 00:46:07;;;;;;;12.60;8.90;;;;;;;;;;5086013;28;20194;-62
2021/07/22 00:48:35;;;;;;;11.30;7.87;;;;;;;;;;5087498;28;20201;-63
2021/07/22 00:51:03;;;;;;;12.63;8.73;;;;;;;;;;5085900;28;20208;-63
2021/07/22 00:53:31;;;;;;;13.53;8.93;;;;;;;;;;5087612;28;20208;-62
2021/07/22 00:55:59;;;;;;;11.27;7.50;;;;;;;;;;5085944;28;20197;-63
2021/07/22 00:58:28;;;;;;;14.73;8.97;;;;;;;;;;5093414;28;20208;-62
2021/07/22 01:00:56;;;;;;;13.87;8.00;;;;;;;;;;5083888;28;20212;-62
2021/07/22 01:03:24;;;;;;;11.70;8.40;;;;;;;;;;5090454;28;20229;-63
2021/07/22 01:05:52;;;;;;;10.37;7.87;;;;;;;;;;5090717;28;20687;-63
2021/07/22 01:08:20;;;;;;;10.53;7.80;;;;;;;;;;5091399;28;20287;-62
2021/07/22 01:10:48;;;;;;;15.73;8.53;;;;;;;;;;5092191;28;20636;-63
2021/07/22 01:13:16;;;;;;;11.83;7.80;;;;;;;;;;5090897;28;20221;-62
2021/07/22 01:15:45;;;;;;;11.33;8.00;;;;;;;;;;5083834;28;20209;-63
2021/07/22 01:18:13;;;;;;;11.83;7.80;;;;;;;;;;5097582;28;20684;-63
2021/07/22 01:20:43;;;;;;;9.27;7.53;;;;;;;;;;5080155;28;20205;-63
2021/07/22 01:23:11;;;;;;;12.23;8.77;;;;;;;;;;5079301;28;20221;-63
2021/07/22 01:25:39;;;;;;;14.80;8.27;;;;;;;;;;5082552;28;20315;-63
2021/07/22 01:28:06;;;;;;;12.83;8.50;;;;;;;;;;5085117;28;20194;-63
2021/07/22 01:30:34;;;;;;;10.90;7.83;;;;;;;;;;5090272;28;20199;-63
2021/07/22 01:33:02;;;;;;;12.97;8.57;;;;;;;;;;5096412;28;20223;-63
2021/07/22 01:35:30;;;;;;;12.27;7.90;;;;;;;;;;5084056;28;20206;-63
2021/07/22 01:38:00;;;;;;;14.33;8.07;;;;;;;;;;5097191;28;20239;-63
2021/07/22 01:40:28;;;;;;;11.77;8.20;;;;;;;;;;5096067;28;20203;-63
2021/07/22 01:42:56;;;;;;;13.93;8.20;;;;;;;;;;5096018;28;20220;-62
2021/07/22 01:45:23;;;;;;;10.60;8.57;;;;;;;;;;5093374;28;20198;-60
2021/07/22 01:47:51;;;;;;;11.57;8.10;;;;;;;;;;5101293;28;20211;-60
2021/07/22 01:50:19;;;;;;;12.77;8.67;;;;;;;;;;5099771;28;20210;-60
2021/07/22 01:52:47;;;;;;;10.70;7.83;;;;;;;;;;5101060;28;20224;-60
2021/07/22 01:55:17;;;;;;;9.90;7.40;;;;;;;;;;5099822;28;20665;-60
2021/07/22 01:57:45;;;;;;;12.60;8.30;;;;;;;;;;5087090;28;20201;-60
2021/07/22 02:00:13;;;;;;;12.77;8.20;;;;;;;;;;5093312;28;20218;-60
2021/07/22 02:02:42;;;;;;;11.83;8.23;;;;;;;;;;5099371;28;20227;-60
2021/07/22 02:05:10;;;;;;;11.93;8.03;;;;;;;;;;5085813;28;20211;-62
2021/07/22 02:07:38;;;;;;;15.50;7.80;;;;;;;;;;5086301;28;20212;-60
2021/07/22 02:10:06;;;;;;;10.80;7.30;;;;;;;;;;5080051;28;20201;-61
2021/07/22 02:12:36;;;;;;;11.73;7.47;;;;;;;;;;5098349;28;20221;-60
2021/07/22 02:15:04;;;;;;;10.10;7.07;;;;;;;;;;5097282;28;20668;-62
2021/07/22 02:17:33;;;;;;;11.40;7.40;;;;;;;;;;5100811;28;20217;-62
2021/07/22 02:20:01;;;;;;;11.40;7.70;;;;;;;;;;5099896;28;20205;-60
2021/07/22 02:22:29;;;;;;;11.77;8.17;;;;;;;;;;5088387;28;20315;-60
2021/07/22 02:24:57;;;;;;;10.33;7.73;;;;;;;;;;5094049;28;20215;-61
2021/07/22 02:27:25;;;;;;;12.10;7.97;;;;;;;;;;5093804;28;20218;-63
2021/07/22 02:29:54;;;;;;;10.43;7.97;;;;;;;;;;5110662;28;20215;-62
2021/07/22 02:32:22;;;;;;;12.17;7.87;;;;;;;;;;5111468;28;20228;-62
2021/07/22 02:34:50;;;;;;;9.90;7.97;;;;;;;;;;5100833;28;20283;-61
2021/07/22 02:37:18;;;;;;;12.60;7.33;;;;;;;;;;5098851;28;20237;-62
2021/07/22 02:39:47;;;;;;;11.90;8.30;;;;;;;;;;5099476;28;20280;-62
2021/07/22 02:42:15;;;;;;;9.43;6.70;;;;;;;;;;5096140;28;20224;-62
2021/07/22 02:44:43;;;;;;;10.10;7.33;;;;;;;;;;5090261;28;20569;-62
2021/07/22 02:47:12;;;;;;;9.73;7.97;;;;;;;;;;5100363;28;20206;-62
2021/07/22 02:49:42;;;;;;;9.60;7.10;;;;;;;;;;5099866;28;20240;-62
2021/07/22 02:52:13;;;;;;;12.00;7.50;;;;;;;;;;5099010;28;20266;-64
2021/07/22 02:54:40;;;;;;;12.17;7.33;;;;;;;;;;5093810;28;20628;-64
2021/07/22 02:57:08;;;;;;;12.30;7.87;;;;;;;;;;5096552;28;20206;-63
2021/07/22 02:59:36;;;;;;;13.47;8.43;;;;;;;;;;5099893;28;20633;-66
2021/07/22 03:02:05;;;;;;;11.50;8.30;;;;;;;;;;5099012;28;20610;-64
2021/07/22 03:04:34;;;;;;;12.70;7.70;;;;;;;;;;5098986;28;20237;-64
2021/07/22 03:07:03;;;;;;;11.80;8.10;;;;;;;;;;5085730;28;20206;-64
2021/07/22 03:09:31;;;;;;;12.10;7.80;;;;;;;;;;5099891;28;20288;-64
2021/07/22 03:11:59;;;;;;;10.60;7.23;;;;;;;;;;5098806;28;20221;-64
2021/07/22 03:14:27;;;;;;;12.23;7.93;;;;;;;;;;5097846;28;20207;-64
2021/07/22 03:16:55;;;;;;;9.93;7.50;;;;;;;;;;5098820;28;20575;-64
2021/07/22 03:19:23;;;;;;;12.80;7.63;;;;;;;;;;5099711;28;20211;-64
2021/07/22 03:21:52;;;;;;;14.33;8.00;;;;;;;;;;5086976;28;20220;-64
2021/07/22 03:24:20;;;;;;;9.57;7.27;;;;;;;;;;5090232;28;20709;-63
2021/07/22 03:26:48;;;;;;;11.47;7.80;;;;;;;;;;5094786;28;20217;-64
2021/07/22 03:29:16;;;;;;;12.30;7.97;;;;;;;;;;5098660;28;20319;-62
2021/07/22 03:31:45;;;;;;;11.37;7.90;;;;;;;;;;5084414;28;20587;-61
2021/07/22 03:34:13;;;;;;;11.57;8.03;;;;;;;;;;5091431;28;20200;-61
2021/07/22 03:36:42;;;;;;;13.07;8.37;;;;;;;;;;5098849;28;20206;-62
2021/07/22 03:39:11;;;;;;;12.67;8.00;;;;;;;;;;5097972;28;20319;-61
2021/07/22 03:41:47;;;;;;;13.33;7.50;;;;;;;;;;5095956;28;20223;-61
2021/07/22 03:44:15;;;;;;;11.67;7.70;;;;;;;;;;5090131;28;20309;-61
2021/07/22 03:46:43;;;;;;;13.20;7.57;;;;;;;;;;5096971;28;20202;-61
2021/07/22 03:49:11;;;;;;;11.53;7.53;;;;;;;;;;5098145;28;20209;-61
2021/07/22 03:51:39;;;;;;;13.17;8.07;;;;;;;;;;5095321;28;20885;-62
2021/07/22 03:54:07;;;;;;;11.90;7.70;;;;;;;;;;5096993;28;20195;-62
2021/07/22 03:56:36;;;;;;;8.83;7.03;;;;;;;;;;5098583;28;20288;-61
2021/07/22 03:59:04;;;;;;;11.40;8.07;;;;;;;;;;5097365;28;20639;-61
2021/07/22 04:01:32;;;;;;;11.57;7.83;;;;;;;;;;5098166;28;20229;-61
2021/07/22 04:04:00;;;;;;;18.53;8.30;;;;;;;;;;5096157;28;20218;-62
2021/07/22 04:06:28;;;;;;;14.87;7.43;;;;;;;;;;5097105;28;20288;-61
2021/07/22 04:08:56;;;;;;;9.57;7.37;;;;;;;;;;5098197;28;20209;-62
2021/07/22 04:11:24;;;;;;;13.83;8.27;;;;;;;;;;5090782;28;20224;-61
2021/07/22 04:13:53;;;;;;;11.27;7.73;;;;;;;;;;5087391;28;20582;-61
2021/07/22 04:16:21;;;;;;;13.43;8.50;;;;;;;;;;5086698;28;20211;-61
2021/07/22 04:18:49;;;;;;;12.27;7.83;;;;;;;;;;5097874;28;20259;-62
2021/07/22 04:21:17;;;;;;;12.17;8.23;;;;;;;;;;5086814;28;20313;-62
2021/07/22 04:23:48;;;;;;;11.50;8.83;;;;;;;;;;5084714;28;20221;-63
2021/07/22 04:26:16;;;;;;;14.17;8.33;;;;;;;;;;5094603;28;20215;-64
2021/07/22 04:28:44;;;;;;;10.93;7.80;;;;;;;;;;5098856;28;20194;-64
2021/07/22 04:31:16;;;;;;;10.93;8.03;;;;;;;;;;5093517;28;20259;-64
2021/07/22 04:33:44;;;;;;;14.07;8.23;;;;;;;;;;5094751;28;20194;-63
2021/07/22 04:36:12;;;;;;;11.63;7.80;;;;;;;;;;5096856;28;20208;-63
2021/07/22 04:38:40;;;;;;;15.03;8.47;;;;;;;;;;5097493;28;20230;-63
2021/07/22 04:41:08;;;;;;;11.97;8.77;;;;;;;;;;5093633;28;20721;-63
2021/07/22 04:43:36;;;;;;;14.13;8.63;;;;;;;;;;5096254;28;20200;-63
2021/07/22 04:46:05;;;;;;;13.20;7.63;;;;;;;;;;5094481;28;20245;-62
2021/07/22 04:48:34;;;;;;;17.87;8.87;;;;;;;;;;5098133;28;20202;-62
2021/07/22 04:51:04;;;;;;;14.30;9.17;;;;;;;;;;5103657;28;20674;-62
2021/07/22 04:53:32;;;;;;;13.43;9.17;;;;;;;;;;5106153;28;20205;-63
2021/07/22 04:56:00;;;;;;;14.97;8.83;;;;;;;;;;5102733;28;20661;-63
2021/07/22 04:58:28;;;;;;;13.73;8.73;;;;;;;;;;5106241;28;20212;-61
2021/07/22 05:00:56;;;;;;;16.13;8.70;;;;;;;;;;5102265;28;20236;-63
2021/07/22 05:03:24;;;;;;;13.67;9.30;;;;;;;;;;5097701;28;20198;-63
2021/07/22 05:05:53;;;;;;;13.17;9.23;;;;;;;;;;5092605;28;20759;-62
2021/07/22 05:08:24;;;;;;;13.23;8.70;;;;;;;;;;5091181;28;20210;-61
2021/07/22 05:10:52;;;;;;;14.50;9.33;;;;;;;;;;5098992;28;20323;-63
2021/07/22 05:13:20;;;;;;;19.50;10.13;;;;;;;;;;5099302;28;20238;-62
2021/07/22 05:15:47;;;;;;;14.63;9.27;;;;;;;;;;5106412;28;20561;-64
2021/07/22 05:18:16;;;;;;;14.83;9.87;;;;;;;;;;5104141;28;20641;-63
2021/07/22 05:20:44;;;;;;;14.97;9.97;;;;;;;;;;5107381;28;20202;-65
2021/07/22 05:23:13;;;;;;;19.83;9.73;;;;;;;;;;5106804;28;20227;-66
2021/07/22 05:25:41;;;;;;;16.40;10.53;;;;;;;;;;5104682;28;20591;-65
2021/07/22 05:28:09;;;;;;;20.37;9.80;;;;;;;;;;5108040;28;20208;-72
2021/07/22 05:30:37;;;;;;;15.03;9.80;;;;;;;;;;5109225;28;20197;-68
2021/07/22 05:33:07;;;;;;;16.73;9.93;;;;;;;;;;5104989;28;20221;-68
2021/07/22 05:35:35;;;;;;;13.37;9.60;;;;;;;;;;5099671;28;20201;-64
2021/07/22 05:38:03;;;;;;;17.53;9.70;;;;;;;;;;5109476;28;20659;-63
2021/07/22 05:40:33;;;;;;;19.73;10.77;;;;;;;;;;5104811;28;20204;-63
2021/07/22 05:43:01;;;;;;;14.90;9.87;;;;;;;;;;5106489;28;20703;-63
2021/07/22 05:45:29;;;;;;;17.23;9.83;;;;;;;;;;5106602;28;20271;-63
2021/07/22 05:47:57;;;;;;;12.90;9.03;;;;;;;;;;5101685;28;20542;-65
2021/07/22 05:50:25;;;;;;;15.10;10.57;;;;;;;;;;5098856;28;20199;-63
2021/07/22 05:52:52;;;;;;;16.57;10.37;;;;;;;;;;5096884;28;20235;-65
2021/07/22 05:55:20;;;;;;;17.97;10.67;;;;;;;;;;5098431;28;20214;-64
2021/07/22 05:57:50;;;;;;;17.43;10.17;;;;;;;;;;5099083;28;20571;-64
2021/07/22 06:00:18;;;;;;;15.53;9.80;;;;;;;;;;5101069;28;20233;-66
2021/07/22 06:02:46;;;;;;;15.97;10.23;;;;;;;;;;5099316;28;20719;-65
2021/07/22 06:05:14;;;;;;;15.10;9.80;;;;;;;;;;5097690;28;20226;-64
2021/07/22 06:07:42;;;;;;;17.47;9.17;;;;;;;;;;5096375;28;20199;-65
2021/07/22 06:10:11;;;;;;;17.97;9.97;;;;;;;;;;5097979;28;20206;-65
2021/07/22 06:12:39;;;;;;;15.37;10.23;;;;;;;;;;5096829;28;20238;-65
2021/07/22 06:15:09;;;;;;;14.80;9.90;;;;;;;;;;5094763;28;20274;-65
2021/07/22 06:17:37;;;;;;;11.53;8.23;;;;;;;;;;5099100;28;20210;-65
2021/07/22 06:20:06;;;;;;;11.57;7.73;;;;;;;;;;5098718;28;20543;-63
2021/07/22 06:22:35;;;;;;;12.50;8.17;;;;;;;;;;5093472;28;20228;-65
2021/07/22 06:25:04;;;;;;;13.47;7.73;;;;;;;;;;5098492;28;20217;-69
2021/07/22 06:27:32;;;;;;;12.70;8.40;;;;;;;;;;5097529;28;20680;-65
2021/07/22 06:30:00;;;;;;;11.43;8.23;;;;;;;;;;5097933;28;20281;-65
2021/07/22 06:32:32;;;;;;;14.40;9.57;;;;;;;;;;5094665;28;20220;-63
2021/07/22 06:35:00;;;;;;;16.13;8.60;;;;;;;;;;5094906;28;20247;-63
2021/07/22 06:37:28;;;;;;;13.20;8.33;;;;;;;;;;5095899;28;20237;-65
2021/07/22 06:39:56;;;;;;;11.70;7.77;;;;;;;;;;5100658;28;20194;-65
2021/07/22 06:42:24;;;;;;;12.73;8.30;;;;;;;;;;5096569;28;20225;-65
2021/07/22 06:44:52;;;;;;;10.97;7.23;;;;;;;;;;5095842;28;20707;-65
2021/07/22 06:47:20;;;;;;;11.23;8.13;;;;;;;;;;5092517;28;20209;-63
2021/07/22 06:49:49;;;;;;;13.67;8.10;;;;;;;;;;5098731;28;20200;-65
2021/07/22 06:52:17;;;;;;;11.90;7.57;;;;;;;;;;5094630;28;20227;-65
2021/07/22 06:54:46;;;;;;;12.03;7.73;;;;;;;;;;5098672;28;20623;-63
2021/07/22 06:57:13;;;;;;;14.07;8.37;;;;;;;;;;5091004;28;20201;-62
2021/07/22 06:59:41;;;;;;;12.00;8.97;;;;;;;;;;5105688;28;20200;-63
2021/07/22 07:02:10;;;;;;;13.10;8.10;;;;;;;;;;5104055;28;20776;-63
2021/07/22 07:04:38;;;;;;;12.07;7.47;;;;;;;;;;5108758;28;20266;-66
2021/07/22 07:07:07;;;;;;;13.20;7.80;;;;;;;;;;5101285;28;20219;-67
2021/07/22 07:09:35;;;;;;;11.17;7.60;;;;;;;;;;5091150;28;20209;-65
2021/07/22 07:12:03;;;;;;;11.47;7.57;;;;;;;;;;5097604;28;20222;-65
2021/07/22 07:14:32;;;;;;;27.90;20.50;;;;;;;;;;5103476;28;20211;-65
2021/07/22 07:17:00;;;;;;;18.40;10.00;;;;;;;;;;5104530;28;20203;-65
2021/07/22 07:19:28;;;;;;;22.57;13.13;;;;;;;;;;5106954;28;20295;-65
2021/07/22 07:21:56;;;;;;;14.73;8.23;;;;;;;;;;5104709;28;20757;-64
2021/07/22 07:24:26;;;;;;;12.23;8.13;;;;;;;;;;5107072;28;20208;-63
2021/07/22 07:26:54;;;;;;;11.43;7.80;;;;;;;;;;5094150;28;20304;-63
2021/07/22 07:29:21;;;;;;;12.40;8.17;;;;;;;;;;5102146;28;20200;-63
2021/07/22 07:31:49;;;;;;;13.13;8.00;;;;;;;;;;5106171;28;20224;-62
2021/07/22 07:34:17;;;;;;;10.17;7.80;;;;;;;;;;5094836;28;20201;-63
2021/07/22 07:36:45;;;;;;;13.77;8.53;;;;;;;;;;5094414;28;20637;-62
2021/07/22 07:39:15;;;;;;;12.77;7.37;;;;;;;;;;5092904;28;20236;-63
2021/07/22 07:41:45;;;;;;;10.80;7.43;;;;;;;;;;5100901;28;20263;-64
2021/07/22 07:44:13;;;;;;;15.53;8.23;;;;;;;;;;5099434;28;20214;-61
2021/07/22 07:46:41;;;;;;;13.73;7.20;;;;;;;;;;5098564;28;20579;-66
2021/07/22 07:49:09;;;;;;;11.50;8.83;;;;;;;;;;5106135;28;20207;-66
2021/07/22 07:51:37;;;;;;;10.13;7.40;;;;;;;;;;5093307;28;20218;-67
2021/07/22 07:54:05;;;;;;;20.93;10.80;;;;;;;;;;5098993;28;20273;-71
2021/07/22 07:56:33;;;;;;;13.10;8.47;;;;;;;;;;5094502;28;20194;-72
2021/07/22 07:59:02;;;;;;;9.10;7.37;;;;;;;;;;5092407;28;20689;-71
2021/07/22 08:01:33;;;;;;;10.90;7.37;;;;;;;;;;5101679;28;20715;-74
2021/07/22 08:04:02;;;;;;;11.77;7.27;;;;;;;;;;5104029;28;20256;-71
2021/07/22 08:06:30;;;;;;;12.17;7.43;;;;;;;;;;5098191;28;20222;-67
2021/07/22 08:08:58;;;;;;;10.57;7.00;;;;;;;;;;5102186;28;20199;-67
2021/07/22 08:11:26;;;;;;;13.93;7.20;;;;;;;;;;5097509;28;20222;-67
2021/07/22 08:13:54;;;;;;;11.07;7.70;;;;;;;;;;5105272;28;20225;-67
2021/07/22 08:16:23;;;;;;;9.63;7.57;;;;;;;;;;5104333;28;20208;-67
2021/07/22 08:18:51;;;;;;;11.30;7.40;;;;;;;;;;5107518;28;20221;-69
2021/07/22 08:21:19;;;;;;;12.73;7.70;;;;;;;;;;5095517;28;20227;-69
2021/07/22 08:23:48;;;;;;;10.73;8.10;;;;;;;;;;5097783;28;20239;-65
2021/07/22 08:26:16;;;;;;;11.37;8.17;;;;;;;;;;5095254;28;20227;-68
2021/07/22 08:28:44;;;;;;;13.90;8.00;;;;;;;;;;5097480;28;20210;-68
2021/07/22 08:31:12;;;;;;;14.90;7.93;;;;;;;;;;5094587;28;20207;-68
2021/07/22 08:33:41;;;;;;;12.07;7.53;;;;;;;;;;5095597;28;20293;-68
2021/07/22 08:36:09;;;;;;;10.00;7.60;;;;;;;;;;5105997;28;20583;-68
2021/07/22 08:38:37;;;;;;;10.40;7.43;;;;;;;;;;5092627;28;20258;-68
2021/07/22 08:41:06;;;;;;;11.10;7.30;;;;;;;;;;5095398;28;20195;-68
2021/07/22 08:43:34;;;;;;;14.60;6.90;;;;;;;;;;5098102;28;20215;-68
2021/07/22 08:46:02;;;;;;;13.07;7.90;;;;;;;;;;5094210;28;20224;-68
2021/07/22 08:48:30;;;;;;;11.63;8.00;;;;;;;;;;5097530;28;20206;-68
2021/07/22 08:51:00;;;;;;;9.90;7.30;;;;;;;;;;5089740;28;20202;-68
2021/07/22 08:53:28;;;;;;;12.60;7.07;;;;;;;;;;5092304;28;20301;-68
2021/07/22 08:55:58;;;;;;;11.07;7.50;;;;;;;;;;5090240;28;20212;-68
2021/07/22 08:58:27;;;;;;;9.67;7.53;;;;;;;;;;5081451;28;20274;-68
2021/07/22 09:00:55;;;;;;;12.27;7.30;;;;;;;;;;5087990;28;20201;-68
2021/07/22 09:03:23;;;;;;;10.70;7.63;;;;;;;;;;5078277;28;20210;-68
2021/07/22 09:05:51;;;;;;;11.93;6.70;;;;;;;;;;5096152;28;20205;-68
2021/07/22 09:08:21;;;;;;;10.97;7.60;;;;;;;;;;5093318;28;20818;-68
2021/07/22 09:11:03;;;;;;;10.73;7.40;;;;;;;;;;5087792;28;20208;-68
2021/07/22 09:13:35;;;;;;;16.23;7.47;;;;;;;;;;5091778;28;20252;-68
2021/07/22 09:16:03;;;;;;;11.07;7.87;;;;;;;;;;5084214;28;20613;-68
2021/07/22 09:18:35;;;;;;;11.60;8.10;;;;;;;;;;5091284;28;20204;-68
2021/07/22 09:21:20;;;;;;;10.63;7.27;;;;;;;;;;5097074;28;20251;-68
2021/07/22 09:24:08;;;;;;;12.20;7.73;;;;;;;;;;5096298;28;20229;-68
2021/07/22 09:26:36;;;;;;;11.63;8.13;;;;;;;;;;5095865;28;20221;-68
2021/07/22 09:29:05;;;;;;;12.20;7.80;;;;;;;;;;5096789;28;20202;-68
2021/07/22 09:31:33;;;;;;;13.37;8.20;;;;;;;;;;5082534;28;20591;-68
2021/07/22 09:34:02;;;;;;;11.90;8.27;;;;;;;;;;5102976;28;20211;-68
2021/07/22 09:36:33;;;;;;;13.63;8.53;;;;;;;;;;5093479;28;20203;-68
2021/07/22 09:39:19;;;;;;;13.63;8.77;;;;;;;;;;5094476;28;20240;-68
2021/07/22 09:41:47;;;;;;;13.37;8.43;;;;;;;;;;5081371;28;20233;-68
2021/07/22 09:44:28;;;;;;;15.70;9.17;;;;;;;;;;5095829;28;20205;-68
2021/07/22 09:46:56;;;;;;;10.97;7.87;;;;;;;;;;5083052;28;20700;-68
2021/07/22 09:49:31;;;;;;;13.30;8.53;;;;;;;;;;5097463;28;20212;-67
2021/07/22 09:52:01;;;;;;;9.67;8.03;;;;;;;;;;5089955;28;20223;-68
2021/07/22 09:54:35;;;;;;;10.77;8.60;;;;;;;;;;5095214;28;20230;-67
2021/07/22 09:57:04;;;;;;;10.23;8.53;;;;;;;;;;5095294;28;20250;-66
2021/07/22 09:59:32;;;;;;;15.73;8.73;;;;;;;;;;5082647;28;20218;-68
2021/07/22 10:02:02;;;;;;;12.23;9.07;;;;;;;;;;5084739;28;20226;-68
2021/07/22 10:04:31;;;;;;;13.73;8.67;;;;;;;;;;5098649;28;20197;-68
2021/07/22 10:07:00;;;;;;;14.63;9.20;;;;;;;;;;5096643;28;20751;-66
2021/07/22 10:09:32;;;;;;;12.30;8.87;;;;;;;;;;5087571;28;20210;-68
2021/07/22 10:12:02;;;;;;;12.70;9.07;;;;;;;;;;5087825;28;20217;-68
2021/07/22 10:14:30;;;;;;;11.43;8.33;;;;;;;;;;5099527;28;20649;-68
2021/07/22 10:17:01;;;;;;;14.23;8.53;;;;;;;;;;5098917;28;20308;-68
2021/07/22 10:19:29;;;;;;;11.30;8.40;;;;;;;;;;5100763;28;20212;-68
2021/07/22 10:21:59;;;;;;;12.70;9.17;;;;;;;;;;5096664;28;20260;-68
2021/07/22 10:24:27;;;;;;;13.07;8.57;;;;;;;;;;5099901;28;20672;-68
2021/07/22 10:26:55;;;;;;;11.63;8.60;;;;;;;;;;5099126;28;20220;-66
2021/07/22 10:29:25;;;;;;;14.87;8.53;;;;;;;;;;5098708;28;20669;-67
2021/07/22 10:31:54;;;;;;;12.37;9.40;;;;;;;;;;5090106;28;20225;-67
2021/07/22 10:34:22;;;;;;;15.47;9.67;;;;;;;;;;5106952;28;20325;-66
2021/07/22 10:36:50;;;;;;;14.63;9.20;;;;;;;;;;5088614;28;20199;-65
2021/07/22 10:39:38;;;;;;;14.40;9.30;;;;;;;;;;5095473;28;20241;-65
2021/07/22 10:42:06;;;;;;;12.23;9.37;;;;;;;;;;5095388;28;20779;-67
2021/07/22 10:44:35;;;;;;;15.60;9.23;;;;;;;;;;5098110;28;20246;-67
2021/07/22 10:47:05;;;;;;;13.43;10.13;;;;;;;;;;5098682;28;20228;-67
2021/07/22 10:49:37;;;;;;;12.87;9.33;;;;;;;;;;5098145;28;20229;-67
2021/07/22 10:52:06;;;;;;;13.60;9.80;;;;;;;;;;5099251;28;20315;-66
2021/07/22 10:54:44;;;;;;;13.93;9.93;;;;;;;;;;5088874;28;20201;-65
2021/07/22 10:57:27;;;;;;;12.50;9.40;;;;;;;;;;5099486;28;20293;-67
2021/07/22 10:59:56;;;;;;;15.67;10.07;;;;;;;;;;5099315;28;20288;-67
2021/07/22 11:02:44;;;;;;;11.53;9.40;;;;;;;;;;5098470;28;20707;-66
2021/07/22 11:05:32;;;;;;;17.83;9.97;;;;;;;;;;5098801;28;20208;-66
2021/07/22 11:08:25;;;;;;;13.67;9.63;;;;;;;;;;5087734;28;20303;-66
2021/07/22 11:10:54;;;;;;;13.77;9.80;;;;;;;;;;5081152;28;20205;-66
2021/07/22 11:13:43;;;;;;;14.57;9.40;;;;;;;;;;5094697;28;20201;-66
2021/07/22 11:16:20;;;;;;;15.67;9.77;;;;;;;;;;5091925;28;20667;-66
2021/07/22 11:18:52;;;;;;;14.40;9.63;;;;;;;;;;5087240;28;20198;-66
2021/07/22 11:21:26;;;;;;;15.67;10.27;;;;;;;;;;5083376;28;20344;-66
2021/07/22 11:23:55;;;;;;;13.33;9.33;;;;;;;;;;5095921;28;20197;-66
2021/07/22 11:26:27;;;;;;;14.80;9.33;;;;;;;;;;5090402;28;20756;-66
2021/07/22 11:29:11;;;;;;;18.33;9.93;;;;;;;;;;5099480;28;20223;-66
2021/07/22 11:31:41;;;;;;;13.57;10.10;;;;;;;;;;5080820;28;20307;-66
2021/07/22 11:34:09;;;;;;;12.57;9.13;;;;;;;;;;5108715;28;20237;-66
2021/07/22 11:36:37;;;;;;;13.50;9.40;;;;;;;;;;5090486;28;20215;-66
2021/07/22 11:39:06;;;;;;;13.03;9.37;;;;;;;;;;5095827;28;20315;-66
2021/07/22 11:41:34;;;;;;;12.00;9.03;;;;;;;;;;5083686;28;20308;-66
2021/07/22 11:44:03;;;;;;;13.77;8.93;;;;;;;;;;5094698;28;20210;-64
2021/07/22 11:46:35;;;;;;;12.80;9.57;;;;;;;;;;5077267;28;20211;-66
2021/07/22 11:49:08;;;;;;;11.43;8.17;;;;;;;;;;5096906;28;20236;-65
2021/07/22 11:51:36;;;;;;;11.80;8.77;;;;;;;;;;5097754;28;20250;-64
2021/07/22 11:54:04;;;;;;;13.57;9.77;;;;;;;;;;5096704;28;20238;-65
2021/07/22 11:56:33;;;;;;;11.40;9.03;;;;;;;;;;5097497;28;20219;-66
2021/07/22 11:59:04;;;;;;;14.43;9.00;;;;;;;;;;5084632;28;20206;-66
2021/07/22 12:01:34;;;;;;;10.50;8.80;;;;;;;;;;5098924;28;20230;-64
2021/07/22 12:04:02;;;;;;;14.60;9.13;;;;;;;;;;5084552;28;20606;-66
2021/07/22 12:06:31;;;;;;;13.10;8.70;;;;;;;;;;5090585;28;20288;-65
2021/07/22 12:09:05;;;;;;;11.17;8.77;;;;;;;;;;5083959;28;20216;-67
2021/07/22 12:11:44;;;;;;;12.63;9.30;;;;;;;;;;5096288;28;20244;-71
2021/07/22 12:14:12;;;;;;;11.00;8.40;;;;;;;;;;5099211;28;20206;-70
2021/07/22 12:16:41;;;;;;;12.10;8.37;;;;;;;;;;5104044;28;20323;-70
2021/07/22 12:19:09;;;;;;;14.47;8.50;;;;;;;;;;5107158;28;20195;-70
2021/07/22 12:21:39;;;;;;;16.80;9.03;;;;;;;;;;5091205;28;20860;-70
2021/07/22 12:24:17;;;;;;;14.47;8.57;;;;;;;;;;5087583;28;20649;-70
2021/07/22 12:26:45;;;;;;;12.07;8.80;;;;;;;;;;5085343;28;20201;-73
2021/07/22 12:29:18;;;;;;;10.70;8.20;;;;;;;;;;5088709;28;20222;-65
2021/07/22 12:31:45;;;;;;;11.60;8.17;;;;;;;;;;5093953;28;20213;-64
2021/07/22 12:34:14;;;;;;;11.07;7.87;;;;;;;;;;5105120;28;20206;-65
2021/07/22 12:36:50;;;;;;;10.53;8.03;;;;;;;;;;5105750;28;20205;-64
2021/07/22 12:39:19;;;;;;;10.53;7.60;;;;;;;;;;5092253;28;20312;-64
2021/07/22 12:41:48;;;;;;;13.00;8.83;;;;;;;;;;5084861;28;20659;-65
2021/07/22 12:44:44;;;;;;;10.73;8.47;;;;;;;;;;5083607;28;20209;-65
2021/07/22 12:47:27;;;;;;;11.77;8.10;;;;;;;;;;5087657;28;20278;-65
2021/07/22 12:49:55;;;;;;;10.87;8.13;;;;;;;;;;5081569;28;20254;-66
2021/07/22 12:52:24;;;;;;;13.33;9.27;;;;;;;;;;5084832;28;20717;-67
2021/07/22 12:54:59;;;;;;;10.53;7.70;;;;;;;;;;5086547;28;20201;-64
2021/07/22 12:57:36;;;;;;;9.80;8.10;;;;;;;;;;5086333;28;20221;-64
2021/07/22 13:00:05;;;;;;;11.53;8.07;;;;;;;;;;5087395;28;20230;-65
2021/07/22 13:02:36;;;;;;;9.00;7.90;;;;;;;;;;5085529;28;20221;-64
2021/07/22 13:05:05;;;;;;;17.43;8.43;;;;;;;;;;5083476;28;20692;-64
2021/07/22 13:07:34;;;;;;;12.00;8.10;;;;;;;;;;5078265;28;20196;-65
2021/07/22 13:10:03;;;;;;;9.43;7.03;;;;;;;;;;5077977;28;20333;-65
2021/07/22 13:12:34;;;;;;;10.52;8.20;;;;;;;;;;5082886;28;20222;-66
2021/07/22 13:15:02;;;;;;;11.15;7.45;;;;;;;;;;5101253;28;20254;-67
2021/07/22 13:17:30;;;;;;;8.57;7.03;;;;;;;;;;5099160;28;20208;-65
2021/07/22 13:19:58;;;;;;;8.90;7.20;;;;;;;;;;5101321;28;20203;-65
2021/07/22 13:22:26;;;;;;;8.77;7.43;;;;;;;;;;5084177;28;20230;-65
2021/07/22 13:24:56;;;;;;;9.23;7.10;;;;;;;;;;5091811;28;20722;-66
2021/07/22 13:27:24;;;;;;;10.93;7.72;;;;;;;;;;5091944;28;20217;-65
2021/07/22 13:29:52;;;;;;;8.00;6.40;;;;;;;;;;5083539;28;20311;-65
2021/07/22 13:32:20;;;;;;;10.07;6.77;;;;;;;;;;5080886;28;20218;-65
2021/07/22 13:34:48;;;;;;;8.13;6.70;;;;;;;;;;5106040;28;20214;-65
2021/07/22 13:37:16;;;;;;;8.07;6.60;;;;;;;;;;5106444;28;20208;-67
2021/07/22 13:39:44;;;;;;;9.40;6.43;;;;;;;;;;5098580;28;20240;-67
2021/07/22 13:42:13;;;;;;;9.80;6.18;;;;;;;;;;5082466;28;20228;-67
2021/07/22 13:44:42;;;;;;;7.45;6.20;;;;;;;;;;5095349;28;20208;-67
2021/07/22 13:47:10;;;;;;;8.30;6.10;;;;;;;;;;5100925;28;20554;-67
2021/07/22 13:49:38;;;;;;;7.20;5.53;;;;;;;;;;5089876;28;20612;-67
2021/07/22 13:52:06;;;;;;;7.93;5.75;;;;;;;;;;5097285;28;20246;-67
2021/07/22 13:54:34;;;;;;;6.65;5.70;;;;;;;;;;5100580;28;20593;-67
2021/07/22 13:57:02;;;;;;;6.30;4.93;;;;;;;;;;5099689;28;20637;-67
2021/07/22 13:59:31;;;;;;;7.13;5.57;;;;;;;;;;5086529;28;20204;-65
2021/07/22 14:02:15;;;;;;;7.38;4.80;;;;;;;;;;5099933;28;20680;-67
2021/07/22 14:04:43;;;;;;;6.65;4.72;;;;;;;;;;5086356;28;20700;-67
2021/07/22 14:07:11;;;;;;;5.95;5.32;;;;;;;;;;5098651;28;20671;-67
2021/07/22 14:09:39;;;;;;;6.78;5.78;;;;;;;;;;5100613;28;20570;-67
2021/07/22 14:12:09;;;;;;;8.52;5.95;;;;;;;;;;5096917;28;20311;-67
2021/07/22 14:14:39;;;;;;;8.77;5.50;;;;;;;;;;5089297;28;20211;-67
2021/07/22 14:17:07;;;;;;;7.38;5.55;;;;;;;;;;5086954;28;20288;-68
2021/07/22 14:19:35;;;;;;;9.10;5.80;;;;;;;;;;5100554;28;20288;-67
2021/07/22 14:22:04;;;;;;;6.78;5.20;;;;;;;;;;5093323;28;20260;-67
2021/07/22 14:24:32;;;;;;;5.72;4.90;;;;;;;;;;5100898;28;20200;-67
2021/07/22 14:27:00;;;;;;;7.30;5.68;;;;;;;;;;5099625;28;20268;-67
2021/07/22 14:29:28;;;;;;;6.07;5.28;;;;;;;;;;5098474;28;20308;-67
2021/07/22 14:31:58;;;;;;;7.18;5.03;;;;;;;;;;5099251;28;20254;-66
2021/07/22 14:34:26;;;;;;;9.40;6.32;;;;;;;;;;5103784;28;20267;-67
2021/07/22 14:36:54;;;;;;;7.57;6.15;;;;;;;;;;5104517;28;20215;-67
2021/07/22 14:39:22;;;;;;;7.25;5.65;;;;;;;;;;5086830;28;20272;-69
2021/07/22 14:41:50;;;;;;;6.97;5.63;;;;;;;;;;5088493;28;20213;-69
2021/07/22 14:44:18;;;;;;;7.88;6.63;;;;;;;;;;5091356;28;20206;-69